Time;durP1;ratioP1;P1;durP2;ratioP2;P2;SDS_P1;SDS_P2;PMS_P1;PMS_P2;Temp;Humidity;BMP_temperature;BMP_pressure;BME280_temperature;BME280_humidity;BME280_pressure;Samples;Min_cycle;Max_cycle;Signal;HPM_P1;HPM_P2
2023/08/24 00:00:37;;;;;;;215.52;75.40;;;;;;;;;;5071733;28;20839;-50
2023/08/24 00:03:04;;;;;;;221.87;82.77;;;;;;;;;;5071928;28;20284;-51
2023/08/24 00:05:30;;;;;;;219.40;79.70;;;;;;;;;;5071765;28;20427;-52
2023/08/24 00:07:56;;;;;;;213.97;74.87;;;;;;;;;;5071892;28;20411;-51
2023/08/24 00:10:22;;;;;;;217.95;79.32;;;;;;;;;;5071487;28;20482;-50
2023/08/24 00:12:48;;;;;;;216.50;77.93;;;;;;;;;;5071648;28;20222;-51
2023/08/24 00:15:14;;;;;;;218.80;80.80;;;;;;;;;;5071617;28;20442;-53
2023/08/24 00:17:40;;;;;;;216.57;77.83;;;;;;;;;;5072065;28;20403;-53
2023/08/24 00:20:10;;;;;;;215.75;75.55;;;;;;;;;;5072888;28;20408;-55
2023/08/24 00:22:36;;;;;;;216.27;77.07;;;;;;;;;;5071213;28;20360;-56
2023/08/24 00:25:02;;;;;;;218.00;80.63;;;;;;;;;;5071864;28;20917;-55
2023/08/24 00:27:28;;;;;;;216.27;76.28;;;;;;;;;;5072487;28;20498;-56
2023/08/24 00:29:54;;;;;;;224.07;84.33;;;;;;;;;;5071521;28;20694;-55
2023/08/24 00:32:20;;;;;;;217.90;78.77;;;;;;;;;;5071969;28;20781;-55
2023/08/24 00:34:46;;;;;;;216.63;77.37;;;;;;;;;;5071781;28;20403;-55
2023/08/24 00:37:12;;;;;;;214.83;73.37;;;;;;;;;;5072117;28;20399;-55
2023/08/24 00:39:38;;;;;;;219.57;79.30;;;;;;;;;;5071905;28;20741;-56
2023/08/24 00:42:04;;;;;;;218.10;77.20;;;;;;;;;;5071776;28;20416;-55
2023/08/24 00:44:30;;;;;;;216.10;74.93;;;;;;;;;;5071710;28;20523;-56
2023/08/24 00:46:56;;;;;;;219.37;79.07;;;;;;;;;;5071840;28;20456;-55
2023/08/24 00:49:22;;;;;;;219.17;78.33;;;;;;;;;;5071707;28;20401;-56
2023/08/24 00:51:48;;;;;;;221.43;81.67;;;;;;;;;;5079959;28;20470;-56
2023/08/24 00:54:14;;;;;;;218.93;77.17;;;;;;;;;;5092274;28;20409;-55
2023/08/24 00:56:40;;;;;;;219.87;78.50;;;;;;;;;;5091986;28;20401;-56
2023/08/24 00:59:06;;;;;;;221.63;80.90;;;;;;;;;;5091852;28;20402;-55
2023/08/24 01:01:32;;;;;;;223.93;84.93;;;;;;;;;;5091175;28;20413;-53
2023/08/24 01:03:58;;;;;;;222.73;83.67;;;;;;;;;;5091088;28;20405;-54
2023/08/24 01:06:25;;;;;;;221.43;78.70;;;;;;;;;;5091413;28;20407;-55
2023/08/24 01:08:51;;;;;;;223.53;80.83;;;;;;;;;;5091634;28;20409;-56
2023/08/24 01:11:30;;;;;;;222.63;80.50;;;;;;;;;;5091407;28;20859;-55
2023/08/24 01:14:12;;;;;;;219.30;77.50;;;;;;;;;;5091865;28;20168;-55
2023/08/24 01:16:40;;;;;;;227.87;89.23;;;;;;;;;;5091524;28;20644;-55
2023/08/24 01:19:07;;;;;;;223.90;80.60;;;;;;;;;;5091640;28;20926;-55
2023/08/24 01:21:33;;;;;;;220.80;77.33;;;;;;;;;;5091849;28;20434;-55
2023/08/24 01:24:11;;;;;;;222.67;81.37;;;;;;;;;;5093494;28;20779;-54
2023/08/24 01:26:37;;;;;;;223.68;81.55;;;;;;;;;;5095447;28;20403;-53
2023/08/24 01:29:05;;;;;;;225.37;86.90;;;;;;;;;;5095456;28;20175;-53
2023/08/24 01:31:31;;;;;;;224.97;80.43;;;;;;;;;;5095350;28;20448;-53
2023/08/24 01:33:57;;;;;;;223.20;80.93;;;;;;;;;;5095267;28;20457;-54
2023/08/24 01:36:24;;;;;;;220.87;77.10;;;;;;;;;;5095204;28;20399;-53
2023/08/24 01:38:58;;;;;;;220.50;77.07;;;;;;;;;;5095273;28;20425;-52
2023/08/24 01:41:26;;;;;;;222.20;81.63;;;;;;;;;;5095167;28;20406;-53
2023/08/24 01:43:54;;;;;;;221.17;79.97;;;;;;;;;;5095077;28;20288;-53
2023/08/24 01:46:21;;;;;;;221.27;82.80;;;;;;;;;;5094990;28;20755;-53
2023/08/24 01:48:47;;;;;;;219.53;78.03;;;;;;;;;;5094947;28;20490;-53
2023/08/24 01:51:14;;;;;;;216.67;74.17;;;;;;;;;;5090572;28;20456;-54
2023/08/24 01:53:41;;;;;;;218.53;77.17;;;;;;;;;;5074621;28;20457;-53
2023/08/24 01:56:14;;;;;;;225.30;83.50;;;;;;;;;;5074637;28;20393;-53
2023/08/24 01:58:40;;;;;;;220.35;78.18;;;;;;;;;;5074539;28;20454;-53
2023/08/24 02:01:06;;;;;;;218.30;76.37;;;;;;;;;;5074421;28;20168;-53
2023/08/24 02:03:32;;;;;;;225.03;86.40;;;;;;;;;;5074226;28;20958;-53
2023/08/24 02:05:58;;;;;;;222.83;80.93;;;;;;;;;;5074516;28;20495;-54
2023/08/24 02:08:24;;;;;;;222.43;81.47;;;;;;;;;;5074502;28;20438;-53
2023/08/24 02:10:51;;;;;;;216.27;72.17;;;;;;;;;;5074052;28;20449;-53
2023/08/24 02:13:17;;;;;;;221.60;82.80;;;;;;;;;;5074218;28;20447;-53
2023/08/24 02:15:43;;;;;;;224.37;85.43;;;;;;;;;;5074175;28;20481;-52
2023/08/24 02:18:09;;;;;;;222.17;81.47;;;;;;;;;;5074165;28;20940;-52
2023/08/24 02:20:36;;;;;;;220.90;77.73;;;;;;;;;;5074024;28;20412;-53
2023/08/24 02:23:02;;;;;;;220.33;79.73;;;;;;;;;;5074075;28;20429;-54
2023/08/24 02:25:28;;;;;;;221.33;80.40;;;;;;;;;;5074016;28;20403;-53
2023/08/24 02:27:54;;;;;;;220.60;79.10;;;;;;;;;;5073984;28;20740;-54
2023/08/24 02:30:20;;;;;;;219.53;76.93;;;;;;;;;;5073785;28;20451;-54
2023/08/24 02:32:46;;;;;;;218.47;75.30;;;;;;;;;;5073775;28;20417;-53
2023/08/24 02:35:12;;;;;;;221.03;77.67;;;;;;;;;;5073823;28;20400;-53
2023/08/24 02:37:38;;;;;;;219.30;78.10;;;;;;;;;;5073840;28;20393;-53
2023/08/24 02:40:04;;;;;;;216.23;74.13;;;;;;;;;;5073601;28;20401;-53
2023/08/24 02:42:34;;;;;;;220.37;78.50;;;;;;;;;;5070691;28;20532;-53
2023/08/24 02:45:00;;;;;;;219.57;76.93;;;;;;;;;;5073457;28;20917;-51
2023/08/24 02:47:26;;;;;;;221.87;77.70;;;;;;;;;;5077263;28;20923;-52
2023/08/24 02:49:52;;;;;;;227.67;86.00;;;;;;;;;;5073104;28;20410;-52
2023/08/24 02:52:18;;;;;;;221.13;78.88;;;;;;;;;;5073272;28;20435;-51
2023/08/24 02:54:44;;;;;;;223.60;83.73;;;;;;;;;;5073321;28;20174;-52
2023/08/24 02:57:10;;;;;;;219.40;76.87;;;;;;;;;;5069336;28;20407;-54
2023/08/24 02:59:36;;;;;;;221.70;81.90;;;;;;;;;;5073080;28;20410;-54
2023/08/24 03:02:02;;;;;;;219.30;78.73;;;;;;;;;;5073264;28;20428;-53
2023/08/24 03:04:28;;;;;;;219.15;79.13;;;;;;;;;;5073136;28;20411;-52
2023/08/24 03:06:54;;;;;;;216.43;75.90;;;;;;;;;;5073033;28;20640;-53
2023/08/24 03:09:20;;;;;;;222.03;83.37;;;;;;;;;;5072959;28;20236;-53
2023/08/24 03:11:46;;;;;;;220.97;81.10;;;;;;;;;;5073078;28;20455;-52
2023/08/24 03:14:12;;;;;;;217.27;76.40;;;;;;;;;;5072990;28;20832;-52
2023/08/24 03:16:39;;;;;;;218.97;80.07;;;;;;;;;;5072727;28;20456;-52
2023/08/24 03:19:05;;;;;;;220.10;79.87;;;;;;;;;;5072898;28;20415;-52
2023/08/24 03:21:31;;;;;;;217.70;78.87;;;;;;;;;;5072430;28;20417;-51
2023/08/24 03:23:57;;;;;;;220.43;78.70;;;;;;;;;;5072693;28;20912;-53
2023/08/24 03:26:23;;;;;;;221.43;82.00;;;;;;;;;;5072737;28;20660;-53
2023/08/24 03:28:49;;;;;;;217.23;76.50;;;;;;;;;;5072588;28;20492;-54
2023/08/24 03:31:15;;;;;;;223.38;82.25;;;;;;;;;;5072241;28;20459;-56
2023/08/24 03:33:41;;;;;;;220.40;79.20;;;;;;;;;;5072879;28;20189;-56
2023/08/24 03:36:07;;;;;;;221.93;84.57;;;;;;;;;;5078391;28;20462;-53
2023/08/24 03:38:33;;;;;;;220.63;81.63;;;;;;;;;;5073193;28;20416;-52
2023/08/24 03:41:03;;;;;;;219.90;79.70;;;;;;;;;;5072270;28;20412;-55
2023/08/24 03:43:32;;;;;;;220.57;80.30;;;;;;;;;;5072258;28;20433;-55
2023/08/24 03:45:58;;;;;;;222.03;81.90;;;;;;;;;;5071922;28;20415;-55
2023/08/24 03:48:24;;;;;;;222.40;81.00;;;;;;;;;;5072430;28;20420;-54
2023/08/24 03:50:50;;;;;;;221.60;80.97;;;;;;;;;;5070713;28;20464;-53
2023/08/24 03:53:16;;;;;;;218.87;78.87;;;;;;;;;;5072068;28;20701;-53
2023/08/24 03:55:42;;;;;;;224.07;86.27;;;;;;;;;;5072080;28;20397;-53
2023/08/24 03:58:07;;;;;;;224.90;90.93;;;;;;;;;;5072078;28;20409;-52
2023/08/24 04:00:33;;;;;;;224.17;85.57;;;;;;;;;;5071789;28;20493;-52
2023/08/24 04:02:59;;;;;;;219.43;82.20;;;;;;;;;;5072136;28;20436;-55
2023/08/24 04:05:25;;;;;;;219.93;79.60;;;;;;;;;;5071816;28;20413;-56
2023/08/24 04:07:52;;;;;;;222.77;84.07;;;;;;;;;;5071891;28;20446;-55
2023/08/24 04:10:18;;;;;;;225.00;87.20;;;;;;;;;;5071680;28;20457;-55
2023/08/24 04:12:44;;;;;;;218.65;79.35;;;;;;;;;;5071647;28;20425;-55
2023/08/24 04:15:10;;;;;;;225.77;90.67;;;;;;;;;;5072038;28;20543;-55
2023/08/24 04:17:36;;;;;;;222.33;85.07;;;;;;;;;;5071741;28;20829;-55
2023/08/24 04:20:04;;;;;;;218.23;78.60;;;;;;;;;;5071571;28;20407;-55
2023/08/24 04:22:32;;;;;;;222.10;83.40;;;;;;;;;;5071670;28;20421;-56
2023/08/24 04:24:58;;;;;;;222.30;84.27;;;;;;;;;;5071823;28;20246;-56
2023/08/24 04:27:24;;;;;;;227.70;90.90;;;;;;;;;;5071492;28;20479;-55
2023/08/24 04:29:50;;;;;;;227.27;89.03;;;;;;;;;;5071447;28;20421;-55
2023/08/24 04:32:16;;;;;;;221.57;85.87;;;;;;;;;;5071591;28;20437;-55
2023/08/24 04:34:41;;;;;;;220.30;82.77;;;;;;;;;;5071673;28;21050;-54
2023/08/24 04:37:07;;;;;;;220.17;83.97;;;;;;;;;;5071744;28;20476;-56
2023/08/24 04:39:33;;;;;;;226.33;89.17;;;;;;;;;;5072251;28;20413;-55
2023/08/24 04:41:59;;;;;;;226.27;90.90;;;;;;;;;;5071531;28;21009;-56
2023/08/24 04:44:25;;;;;;;233.33;96.13;;;;;;;;;;5070197;28;20439;-56
2023/08/24 04:46:51;;;;;;;222.13;84.93;;;;;;;;;;5070043;28;20426;-53
2023/08/24 04:49:17;;;;;;;220.70;83.33;;;;;;;;;;5069104;28;20799;-52
2023/08/24 04:51:43;;;;;;;221.60;83.03;;;;;;;;;;5070975;28;20474;-54
2023/08/24 04:54:09;;;;;;;221.87;84.40;;;;;;;;;;5071345;28;20429;-53
2023/08/24 04:56:35;;;;;;;222.93;89.05;;;;;;;;;;5071193;28;20748;-54
2023/08/24 04:59:02;;;;;;;222.40;87.80;;;;;;;;;;5073654;28;20214;-53
2023/08/24 05:01:31;;;;;;;224.83;91.53;;;;;;;;;;5075194;28;20410;-54
2023/08/24 05:03:57;;;;;;;221.73;86.25;;;;;;;;;;5075325;28;20762;-53
2023/08/24 05:06:23;;;;;;;224.33;90.63;;;;;;;;;;5075499;28;20182;-52
2023/08/24 05:08:49;;;;;;;224.27;87.50;;;;;;;;;;5082116;28;20486;-53
2023/08/24 05:11:17;;;;;;;225.77;90.60;;;;;;;;;;5074891;28;20945;-53
2023/08/24 05:13:43;;;;;;;225.30;88.10;;;;;;;;;;5075200;28;20435;-51
2023/08/24 05:16:10;;;;;;;222.57;86.75;;;;;;;;;;5075216;28;20540;-51
2023/08/24 05:18:36;;;;;;;215.85;82.82;;;;;;;;;;5075131;28;20175;-52
2023/08/24 05:21:03;;;;;;;215.68;81.53;;;;;;;;;;5072033;28;20207;-52
2023/08/24 05:23:29;;;;;;;218.17;84.03;;;;;;;;;;5080892;28;20185;-51
2023/08/24 05:25:55;;;;;;;216.03;80.00;;;;;;;;;;5075210;28;20433;-53
2023/08/24 05:28:21;;;;;;;219.60;84.20;;;;;;;;;;5074834;28;20453;-52
2023/08/24 05:30:47;;;;;;;220.03;85.30;;;;;;;;;;5074382;28;20456;-53
2023/08/24 05:33:13;;;;;;;220.67;86.23;;;;;;;;;;5074672;28;20959;-53
2023/08/24 05:35:39;;;;;;;217.27;83.10;;;;;;;;;;5074675;28;20921;-52
2023/08/24 05:38:05;;;;;;;218.93;83.07;;;;;;;;;;5074654;28;20956;-53
2023/08/24 05:40:34;;;;;;;217.67;84.00;;;;;;;;;;5074355;28;20411;-51
2023/08/24 05:43:00;;;;;;;219.20;85.60;;;;;;;;;;5074488;28;20459;-54
2023/08/24 05:45:26;;;;;;;218.83;83.87;;;;;;;;;;5074594;28;20413;-51
2023/08/24 05:47:52;;;;;;;219.67;85.17;;;;;;;;;;5074515;28;20496;-52
2023/08/24 05:50:17;;;;;;;218.83;83.13;;;;;;;;;;5073811;28;20469;-52
2023/08/24 05:52:44;;;;;;;218.27;82.33;;;;;;;;;;5073109;28;20486;-52
2023/08/24 05:55:10;;;;;;;253.00;111.75;;;;;;;;;;5073235;28;20774;-51
2023/08/24 05:57:36;;;;;;;235.07;95.87;;;;;;;;;;5073160;28;20175;-51
2023/08/24 06:00:03;;;;;;;219.87;83.07;;;;;;;;;;5072903;28;20411;-53
2023/08/24 06:02:29;;;;;;;227.70;92.53;;;;;;;;;;5073139;28;21017;-52
2023/08/24 06:04:55;;;;;;;236.53;101.67;;;;;;;;;;5073257;28;20424;-52
2023/08/24 06:07:21;;;;;;;229.57;96.73;;;;;;;;;;5073116;28;20422;-51
2023/08/24 06:09:47;;;;;;;230.07;102.00;;;;;;;;;;5072628;28;20404;-52
2023/08/24 06:12:13;;;;;;;326.40;170.23;;;;;;;;;;5073182;28;20410;-52
2023/08/24 06:14:39;;;;;;;231.83;95.17;;;;;;;;;;5073170;28;20396;-52
2023/08/24 06:17:05;;;;;;;297.47;130.10;;;;;;;;;;5073110;28;20429;-52
2023/08/24 06:19:31;;;;;;;236.83;94.80;;;;;;;;;;5073105;28;20436;-53
2023/08/24 06:21:57;;;;;;;231.47;92.90;;;;;;;;;;5072672;28;20427;-53
2023/08/24 06:24:23;;;;;;;270.83;112.03;;;;;;;;;;5073087;28;20406;-52
2023/08/24 06:26:49;;;;;;;254.40;108.90;;;;;;;;;;5072966;28;20498;-52
2023/08/24 06:29:15;;;;;;;325.20;138.27;;;;;;;;;;5072903;28;20409;-53
2023/08/24 06:31:41;;;;;;;224.77;91.70;;;;;;;;;;5072510;28;20490;-52
2023/08/24 06:34:07;;;;;;;224.87;86.93;;;;;;;;;;5072835;28;20426;-53
2023/08/24 06:36:33;;;;;;;222.73;82.30;;;;;;;;;;5072742;28;20771;-52
2023/08/24 06:38:59;;;;;;;222.50;85.03;;;;;;;;;;5072808;28;20389;-54
2023/08/24 06:41:24;;;;;;;237.60;120.57;;;;;;;;;;5072602;28;20404;-52
2023/08/24 06:43:50;;;;;;;227.87;94.77;;;;;;;;;;5072624;28;20429;-52
2023/08/24 06:46:16;;;;;;;230.27;101.97;;;;;;;;;;5072651;28;20436;-52
2023/08/24 06:48:44;;;;;;;232.97;103.73;;;;;;;;;;5072669;28;20878;-51
2023/08/24 06:51:10;;;;;;;221.07;85.30;;;;;;;;;;5035208;28;1068773;-54
2023/08/24 06:53:36;;;;;;;226.27;91.13;;;;;;;;;;5073563;28;20190;-52
2023/08/24 06:56:03;;;;;;;222.37;85.23;;;;;;;;;;5073508;28;20411;-53
2023/08/24 06:58:29;;;;;;;230.90;93.40;;;;;;;;;;5073489;28;20400;-53
2023/08/24 07:00:57;;;;;;;231.40;93.70;;;;;;;;;;5073156;28;20415;-52
2023/08/24 07:03:24;;;;;;;229.07;90.80;;;;;;;;;;5072805;28;20504;-53
2023/08/24 07:05:50;;;;;;;235.30;98.60;;;;;;;;;;5072568;28;20880;-53
2023/08/24 07:08:16;;;;;;;228.07;91.93;;;;;;;;;;5072776;28;20391;-53
2023/08/24 07:10:42;;;;;;;233.70;104.30;;;;;;;;;;5072534;28;20940;-52
2023/08/24 07:13:09;;;;;;;234.97;103.57;;;;;;;;;;5073278;28;20416;-52
2023/08/24 07:15:35;;;;;;;230.57;97.13;;;;;;;;;;5072721;28;20762;-52
2023/08/24 07:18:05;;;;;;;246.70;126.57;;;;;;;;;;5073015;28;20397;-53
2023/08/24 07:20:32;;;;;;;234.97;109.23;;;;;;;;;;5069227;28;20418;-52
2023/08/24 07:22:58;;;;;;;234.20;103.60;;;;;;;;;;5068182;28;20477;-53
2023/08/24 07:25:24;;;;;;;231.67;99.33;;;;;;;;;;5075369;28;20405;-52
2023/08/24 07:27:50;;;;;;;234.47;109.30;;;;;;;;;;5072756;28;20896;-52
2023/08/24 07:30:16;;;;;;;254.57;156.37;;;;;;;;;;5072633;28;20476;-52
2023/08/24 07:32:42;;;;;;;241.67;126.00;;;;;;;;;;5072644;28;20439;-52
2023/08/24 07:35:08;;;;;;;235.10;108.17;;;;;;;;;;5072856;28;20431;-52
2023/08/24 07:37:34;;;;;;;235.37;107.50;;;;;;;;;;5071815;28;20397;-53
2023/08/24 07:40:00;;;;;;;236.23;108.77;;;;;;;;;;5070370;28;20401;-53
2023/08/24 07:42:26;;;;;;;235.10;105.20;;;;;;;;;;5070497;28;20419;-53
2023/08/24 07:44:53;;;;;;;236.17;115.17;;;;;;;;;;5071841;28;20400;-52
2023/08/24 07:47:18;;;;;;;234.43;108.10;;;;;;;;;;5071534;28;20388;-53
2023/08/24 07:49:44;;;;;;;233.40;110.03;;;;;;;;;;5072369;28;20415;-52
2023/08/24 07:52:13;;;;;;;232.03;108.97;;;;;;;;;;5083757;28;20493;-53
2023/08/24 07:54:40;;;;;;;231.80;111.90;;;;;;;;;;5092545;28;20434;-53
2023/08/24 07:57:06;;;;;;;231.77;107.50;;;;;;;;;;5092613;28;20428;-52
2023/08/24 07:59:32;;;;;;;232.47;109.70;;;;;;;;;;5092419;28;20816;-54
2023/08/24 08:01:58;;;;;;;232.30;111.40;;;;;;;;;;5092230;28;20830;-53
2023/08/24 08:04:24;;;;;;;231.63;112.73;;;;;;;;;;5092444;28;20402;-53
2023/08/24 08:06:50;;;;;;;228.40;109.00;;;;;;;;;;5092438;28;20400;-54
2023/08/24 08:09:16;;;;;;;224.60;104.73;;;;;;;;;;5092430;28;20775;-52
2023/08/24 08:11:42;;;;;;;230.00;110.00;;;;;;;;;;5092057;28;20507;-53
2023/08/24 08:14:09;;;;;;;229.07;111.50;;;;;;;;;;5092030;28;20392;-53
2023/08/24 08:16:36;;;;;;;227.07;111.53;;;;;;;;;;5092277;28;20396;-53
2023/08/24 08:19:02;;;;;;;229.90;110.80;;;;;;;;;;5092327;28;20816;-53
2023/08/24 08:21:29;;;;;;;225.30;108.77;;;;;;;;;;5092139;28;20443;-53
2023/08/24 08:23:55;;;;;;;229.40;115.43;;;;;;;;;;5092074;28;20517;-52
2023/08/24 08:26:21;;;;;;;233.13;126.57;;;;;;;;;;5092025;28;20854;-52
2023/08/24 08:28:47;;;;;;;227.87;111.23;;;;;;;;;;5092073;28;20403;-52
2023/08/24 08:31:13;;;;;;;229.93;116.00;;;;;;;;;;5084459;28;20458;-52
2023/08/24 08:33:39;;;;;;;225.90;110.53;;;;;;;;;;5071739;28;20460;-54
2023/08/24 08:36:05;;;;;;;226.87;114.50;;;;;;;;;;5071853;28;20408;-53
2023/08/24 08:38:31;;;;;;;222.67;106.70;;;;;;;;;;5071776;28;20915;-53
2023/08/24 08:40:59;;;;;;;227.87;116.97;;;;;;;;;;5071297;28;20405;-53
2023/08/24 08:43:25;;;;;;;226.83;112.37;;;;;;;;;;5071560;28;20495;-53
2023/08/24 08:45:52;;;;;;;228.10;116.93;;;;;;;;;;5071724;28;20400;-52
2023/08/24 08:48:18;;;;;;;224.50;109.73;;;;;;;;;;5071685;28;20798;-53
2023/08/24 08:50:44;;;;;;;224.40;111.83;;;;;;;;;;5071225;28;20459;-54
2023/08/24 08:53:10;;;;;;;228.33;118.43;;;;;;;;;;5091527;28;20613;-53
2023/08/24 08:55:36;;;;;;;226.03;117.77;;;;;;;;;;5081728;28;20496;-52
2023/08/24 08:58:03;;;;;;;224.97;117.13;;;;;;;;;;5065912;28;20897;-51
2023/08/24 09:00:30;;;;;;;228.17;121.80;;;;;;;;;;5051038;28;20412;-54
2023/08/24 09:02:57;;;;;;;224.83;113.33;;;;;;;;;;5050344;28;20946;-52
2023/08/24 09:05:25;;;;;;;229.63;122.53;;;;;;;;;;5050493;28;20410;-54
2023/08/24 09:07:52;;;;;;;220.70;109.10;;;;;;;;;;5049867;28;20443;-53
2023/08/24 09:10:18;;;;;;;222.83;110.00;;;;;;;;;;5050190;28;20823;-53
2023/08/24 09:12:44;;;;;;;221.20;109.50;;;;;;;;;;5051263;28;20414;-52
2023/08/24 09:15:10;;;;;;;221.60;108.47;;;;;;;;;;5050680;28;20397;-53
2023/08/24 09:17:36;;;;;;;223.10;111.17;;;;;;;;;;5051332;28;20397;-53
2023/08/24 09:20:15;;;;;;;225.30;112.70;;;;;;;;;;5050223;28;20400;-53
2023/08/24 09:22:44;;;;;;;222.80;115.13;;;;;;;;;;5051140;28;20420;-53
2023/08/24 09:25:10;;;;;;;222.70;110.03;;;;;;;;;;5051093;28;20439;-54
2023/08/24 09:27:36;;;;;;;220.43;107.50;;;;;;;;;;5051147;28;20400;-54
2023/08/24 09:30:02;;;;;;;222.20;109.97;;;;;;;;;;5050897;28;20397;-53
2023/08/24 09:32:29;;;;;;;222.17;111.00;;;;;;;;;;5051097;28;20421;-54
2023/08/24 09:34:55;;;;;;;220.33;108.10;;;;;;;;;;5050588;28;20826;-54
2023/08/24 09:37:21;;;;;;;222.13;111.23;;;;;;;;;;5051163;28;20416;-54
2023/08/24 09:39:48;;;;;;;226.00;114.53;;;;;;;;;;5050732;28;20401;-54
2023/08/24 09:42:14;;;;;;;222.77;112.50;;;;;;;;;;5050980;28;20417;-54
2023/08/24 09:44:46;;;;;;;222.03;111.43;;;;;;;;;;5052597;28;20511;-53
2023/08/24 09:47:12;;;;;;;223.47;114.17;;;;;;;;;;5054677;28;20439;-54
2023/08/24 09:49:38;;;;;;;224.37;114.13;;;;;;;;;;5054610;28;20405;-53
2023/08/24 09:52:08;;;;;;;223.37;112.87;;;;;;;;;;5076107;28;20466;-53
2023/08/24 09:54:36;;;;;;;221.83;113.03;;;;;;;;;;5094943;28;20545;-53
2023/08/24 09:57:03;;;;;;;224.97;116.17;;;;;;;;;;5094888;28;20392;-54
2023/08/24 09:59:31;;;;;;;224.23;116.40;;;;;;;;;;5094856;28;20487;-52
2023/08/24 10:01:58;;;;;;;224.93;114.40;;;;;;;;;;5094505;28;20422;-53
2023/08/24 10:04:25;;;;;;;230.63;120.07;;;;;;;;;;5094543;28;20403;-53
2023/08/24 10:07:20;;;;;;;228.80;124.37;;;;;;;;;;5094423;28;20913;-52
2023/08/24 10:09:53;;;;;;;234.17;126.67;;;;;;;;;;5094188;28;20395;-52
2023/08/24 10:12:20;;;;;;;226.87;118.67;;;;;;;;;;5094529;28;20419;-52
2023/08/24 10:15:06;;;;;;;228.97;124.00;;;;;;;;;;5094348;28;20398;-53
2023/08/24 10:17:36;;;;;;;225.73;118.20;;;;;;;;;;5083928;28;20763;-52
2023/08/24 10:20:05;;;;;;;227.33;120.50;;;;;;;;;;5064483;28;20462;-51
2023/08/24 10:22:31;;;;;;;226.60;120.93;;;;;;;;;;5073974;28;20415;-53
2023/08/24 10:24:57;;;;;;;227.33;123.30;;;;;;;;;;5074366;28;20385;-53
2023/08/24 10:27:24;;;;;;;227.67;121.57;;;;;;;;;;5073917;28;20801;-53
2023/08/24 10:29:50;;;;;;;230.60;125.90;;;;;;;;;;5074313;28;20435;-54
2023/08/24 10:32:16;;;;;;;222.47;113.47;;;;;;;;;;5074669;28;21029;-55
2023/08/24 10:34:42;;;;;;;227.40;125.43;;;;;;;;;;5074733;28;20484;-55
2023/08/24 10:37:11;;;;;;;226.30;122.37;;;;;;;;;;5074717;28;20491;-54
2023/08/24 10:39:38;;;;;;;227.60;120.77;;;;;;;;;;5074605;28;20408;-54
2023/08/24 10:42:05;;;;;;;224.73;119.37;;;;;;;;;;5074518;28;20508;-54
2023/08/24 10:44:36;;;;;;;226.40;122.40;;;;;;;;;;5074195;28;21034;-53
2023/08/24 10:47:08;;;;;;;231.43;128.33;;;;;;;;;;5073636;28;20404;-54
2023/08/24 10:49:34;;;;;;;228.73;126.83;;;;;;;;;;5074310;28;20847;-55
2023/08/24 10:52:18;;;;;;;224.73;116.67;;;;;;;;;;5083974;28;20855;-55
2023/08/24 10:54:45;;;;;;;223.77;119.47;;;;;;;;;;5093885;28;20395;-55
2023/08/24 10:57:18;;;;;;;227.33;122.80;;;;;;;;;;5082668;28;20434;-53
2023/08/24 10:59:44;;;;;;;236.53;135.77;;;;;;;;;;5073894;28;20449;-52
2023/08/24 11:02:18;;;;;;;227.53;124.80;;;;;;;;;;5073198;28;20538;-51
2023/08/24 11:05:04;;;;;;;226.73;121.33;;;;;;;;;;5073268;28;20401;-51
2023/08/24 11:07:30;;;;;;;224.43;116.93;;;;;;;;;;5073158;28;20479;-52
2023/08/24 11:09:56;;;;;;;235.77;133.50;;;;;;;;;;5072708;28;20550;-53
2023/08/24 11:12:22;;;;;;;225.73;121.63;;;;;;;;;;5071765;28;20451;-52
2023/08/24 11:14:54;;;;;;;224.83;120.73;;;;;;;;;;5072865;28;20420;-52
2023/08/24 11:17:20;;;;;;;230.13;128.13;;;;;;;;;;5072708;28;20794;-52
2023/08/24 11:19:50;;;;;;;231.13;123.97;;;;;;;;;;5072649;28;20466;-52
2023/08/24 11:22:17;;;;;;;224.13;118.30;;;;;;;;;;5072782;28;20491;-53
2023/08/24 11:24:43;;;;;;;227.00;127.20;;;;;;;;;;5072947;28;20458;-55
2023/08/24 11:27:09;;;;;;;227.70;123.13;;;;;;;;;;5072753;28;20404;-53
2023/08/24 11:29:35;;;;;;;219.03;111.77;;;;;;;;;;5072732;28;20401;-55
2023/08/24 11:32:01;;;;;;;228.07;125.30;;;;;;;;;;5072820;28;20466;-54
2023/08/24 11:34:27;;;;;;;223.97;115.80;;;;;;;;;;5072800;28;20412;-55
2023/08/24 11:36:53;;;;;;;247.17;142.03;;;;;;;;;;5073634;28;20415;-55
2023/08/24 11:39:22;;;;;;;223.60;112.60;;;;;;;;;;5072999;28;20408;-54
2023/08/24 11:42:17;;;;;;;221.77;111.40;;;;;;;;;;5072247;28;20927;-53
2023/08/24 11:44:46;;;;;;;222.60;115.90;;;;;;;;;;5063408;28;20423;-53
2023/08/24 11:47:12;;;;;;;223.70;120.10;;;;;;;;;;5073450;28;20405;-55
2023/08/24 11:49:38;;;;;;;227.43;122.53;;;;;;;;;;5073537;28;20408;-54
2023/08/24 11:52:04;;;;;;;226.63;120.60;;;;;;;;;;5084111;28;20881;-55
2023/08/24 11:54:33;;;;;;;223.63;114.87;;;;;;;;;;5093707;28;20426;-55
2023/08/24 11:56:59;;;;;;;226.77;119.67;;;;;;;;;;5093662;28;20444;-55
2023/08/24 11:59:25;;;;;;;227.03;118.60;;;;;;;;;;5093425;28;21126;-55
2023/08/24 12:01:52;;;;;;;224.00;115.03;;;;;;;;;;5092814;28;20399;-53
2023/08/24 12:04:18;;;;;;;225.27;113.73;;;;;;;;;;5092371;28;20990;-54
2023/08/24 12:06:44;;;;;;;224.30;116.17;;;;;;;;;;5092087;28;20403;-53
2023/08/24 12:09:10;;;;;;;227.23;117.17;;;;;;;;;;5092294;28;20442;-53
2023/08/24 12:11:38;;;;;;;222.10;107.30;;;;;;;;;;5091925;28;20447;-53
2023/08/24 12:14:05;;;;;;;225.93;114.27;;;;;;;;;;5092434;28;20400;-55
2023/08/24 12:16:32;;;;;;;226.67;111.63;;;;;;;;;;5092655;28;20399;-52
2023/08/24 12:19:02;;;;;;;226.93;115.37;;;;;;;;;;5092360;28;20811;-52
2023/08/24 12:21:29;;;;;;;229.90;119.10;;;;;;;;;;5092400;28;20465;-52
2023/08/24 12:24:09;;;;;;;223.20;109.63;;;;;;;;;;5092024;28;20462;-55
2023/08/24 12:26:35;;;;;;;229.43;121.40;;;;;;;;;;5092146;28;20399;-53
2023/08/24 12:29:03;;;;;;;225.13;117.07;;;;;;;;;;5092104;28;20415;-52
2023/08/24 12:31:29;;;;;;;236.70;120.27;;;;;;;;;;5091690;28;20458;-52
2023/08/24 12:34:03;;;;;;;226.67;112.13;;;;;;;;;;5091940;28;20526;-52
2023/08/24 12:36:29;;;;;;;221.83;107.07;;;;;;;;;;5092048;28;20400;-54
2023/08/24 12:38:55;;;;;;;224.17;108.07;;;;;;;;;;5091768;28;20396;-54
2023/08/24 12:41:21;;;;;;;225.33;114.43;;;;;;;;;;5091624;28;20803;-54
2023/08/24 12:43:47;;;;;;;225.17;112.57;;;;;;;;;;5091716;28;20438;-54
2023/08/24 12:46:12;;;;;;;224.27;108.13;;;;;;;;;;5091921;28;20417;-53
2023/08/24 12:48:39;;;;;;;223.47;109.23;;;;;;;;;;5091774;28;20545;-53
2023/08/24 12:51:05;;;;;;;220.83;104.03;;;;;;;;;;5088751;28;20459;-53
2023/08/24 12:53:31;;;;;;;234.93;126.60;;;;;;;;;;5071337;28;20499;-53
2023/08/24 12:55:57;;;;;;;227.87;120.17;;;;;;;;;;5071684;28;20397;-56
2023/08/24 12:58:23;;;;;;;226.97;116.83;;;;;;;;;;5071820;28;20884;-53
2023/08/24 13:00:49;;;;;;;221.27;105.90;;;;;;;;;;5071135;28;20396;-53
2023/08/24 13:03:15;;;;;;;223.77;107.57;;;;;;;;;;5071523;28;20416;-53
2023/08/24 13:05:41;;;;;;;224.67;108.90;;;;;;;;;;5071297;28;20400;-56
2023/08/24 13:08:07;;;;;;;221.73;101.77;;;;;;;;;;5071461;28;20411;-55
2023/08/24 13:10:33;;;;;;;224.90;109.00;;;;;;;;;;5071200;28;20492;-55
2023/08/24 13:12:59;;;;;;;224.07;106.20;;;;;;;;;;5071404;28;20432;-56
2023/08/24 13:15:26;;;;;;;223.50;102.77;;;;;;;;;;5071394;28;20413;-53
2023/08/24 13:17:52;;;;;;;226.37;107.80;;;;;;;;;;5071373;28;20904;-54
2023/08/24 13:20:18;;;;;;;223.83;103.90;;;;;;;;;;5073652;28;20411;-56
2023/08/24 13:22:43;;;;;;;220.03;95.07;;;;;;;;;;5075119;28;20992;-53
2023/08/24 13:25:10;;;;;;;227.60;108.57;;;;;;;;;;5075328;28;20770;-54
2023/08/24 13:27:36;;;;;;;225.43;101.10;;;;;;;;;;5075428;28;20491;-54
2023/08/24 13:30:02;;;;;;;221.13;96.13;;;;;;;;;;5074851;28;20487;-54
2023/08/24 13:32:28;;;;;;;223.50;100.53;;;;;;;;;;5074013;28;20923;-54
2023/08/24 13:34:55;;;;;;;223.47;100.23;;;;;;;;;;5074785;28;20458;-56
2023/08/24 13:37:21;;;;;;;224.53;102.77;;;;;;;;;;5076283;28;20487;-56
2023/08/24 13:39:47;;;;;;;225.80;108.43;;;;;;;;;;5076573;28;20404;-55
2023/08/24 13:42:13;;;;;;;224.03;108.43;;;;;;;;;;5075933;28;20779;-56
2023/08/24 13:44:39;;;;;;;224.63;105.60;;;;;;;;;;5076046;28;20428;-56
2023/08/24 13:47:06;;;;;;;225.17;105.43;;;;;;;;;;5074745;28;20396;-56
2023/08/24 13:49:32;;;;;;;227.17;111.87;;;;;;;;;;5074298;28;20408;-56
2023/08/24 13:51:58;;;;;;;226.00;108.53;;;;;;;;;;5084119;28;20874;-53
2023/08/24 13:54:26;;;;;;;223.33;104.00;;;;;;;;;;5095523;28;20478;-56
2023/08/24 13:56:53;;;;;;;220.40;100.40;;;;;;;;;;5097055;28;20966;-56